createdAt,value
2022-10-18T00:00:12.826Z,6.10
2022-10-18T00:04:14.570Z,5.97
2022-10-18T00:08:18.747Z,5.83
2022-10-18T00:12:20.298Z,6.30
2022-10-18T00:16:21.839Z,5.97
2022-10-18T00:20:23.296Z,5.87
2022-10-18T00:24:26.217Z,6.37
2022-10-18T00:28:27.853Z,6.00
2022-10-18T00:32:29.925Z,6.30
2022-10-18T00:36:33.169Z,6.70
2022-10-18T00:40:35.977Z,6.43
2022-10-18T00:45:04.877Z,6.10
2022-10-18T00:49:11.094Z,7.40
2022-10-18T00:53:16.198Z,7.60
2022-10-18T00:57:19.301Z,8.03
2022-10-18T01:01:24.406Z,7.97
2022-10-18T01:05:29.090Z,8.77
2022-10-18T01:09:39.639Z,8.63
2022-10-18T01:13:56.066Z,9.60
2022-10-18T01:18:04.673Z,11.00
2022-10-18T01:22:15.158Z,12.57
2022-10-18T01:26:30.134Z,13.37
2022-10-18T01:30:47.835Z,12.30
2022-10-18T01:34:51.939Z,12.80
2022-10-18T01:38:57.503Z,13.70
2022-10-18T01:43:00.806Z,12.77
2022-10-18T01:47:06.421Z,13.53
2022-10-18T01:51:09.557Z,14.17
2022-10-18T01:55:11.290Z,15.23
2022-10-18T01:59:39.513Z,15.43
2022-10-18T02:03:46.291Z,16.37
2022-10-18T02:08:05.878Z,17.77
2022-10-18T02:12:20.238Z,17.60
2022-10-18T02:16:25.307Z,17.30
2022-10-18T02:20:29.657Z,16.83
2022-10-18T02:24:35.681Z,16.70
2022-10-18T02:28:37.455Z,16.97
2022-10-18T02:32:44.537Z,16.23
2022-10-18T02:36:51.421Z,15.83
2022-10-18T02:40:53.241Z,16.47
2022-10-18T02:44:54.782Z,16.13
2022-10-18T02:48:56.185Z,17.17
2022-10-18T02:52:59.125Z,16.73
2022-10-18T02:57:00.689Z,17.03
2022-10-18T03:01:02.323Z,16.23
2022-10-18T03:05:04.705Z,15.90
2022-10-18T03:09:07.533Z,16.60
2022-10-18T03:13:09.046Z,16.03
2022-10-18T03:17:10.638Z,17.03
2022-10-18T03:21:12.518Z,16.10
2022-10-18T03:25:15.398Z,15.20
2022-10-18T03:29:17.811Z,14.50
2022-10-18T03:33:19.624Z,14.97
2022-10-18T03:37:21.195Z,14.70
2022-10-18T03:41:23.971Z,15.10
2022-10-18T03:45:28.947Z,15.87
2022-10-18T03:53:35.278Z,15.43
2022-10-18T03:57:38.036Z,15.20
2022-10-18T04:01:39.693Z,15.80
2022-10-18T04:05:41.171Z,14.60
2022-10-18T04:09:42.690Z,17.50
2022-10-18T04:13:45.462Z,18.67
2022-10-18T04:17:47.057Z,17.53
2022-10-18T04:21:48.613Z,17.07
2022-10-18T04:25:50.193Z,16.83
2022-10-18T04:29:53.114Z,16.00
2022-10-18T04:33:54.829Z,14.80
2022-10-18T04:37:56.368Z,13.97
2022-10-18T04:41:57.918Z,14.40
2022-10-18T04:46:00.933Z,14.47
2022-10-18T04:50:02.506Z,15.17
2022-10-18T04:54:04.130Z,13.93
2022-10-18T04:58:05.642Z,15.97
2022-10-18T05:02:08.588Z,15.67
2022-10-18T05:06:10.339Z,15.60
2022-10-18T05:10:11.950Z,14.40
2022-10-18T05:14:13.484Z,15.33
2022-10-18T05:18:16.471Z,17.03
2022-10-18T05:22:18.106Z,18.87
2022-10-18T05:26:19.538Z,17.07
2022-10-18T05:30:21.000Z,12.63
2022-10-18T05:34:24.127Z,9.10
2022-10-18T05:38:26.328Z,8.00
2022-10-18T05:42:28.059Z,7.57
2022-10-18T05:46:29.684Z,8.17
2022-10-18T05:50:36.645Z,6.93
2022-10-18T05:54:41.015Z,7.17
2022-10-18T05:58:43.070Z,6.77
2022-10-18T06:02:44.582Z,7.03
2022-10-18T06:06:47.460Z,8.60
2022-10-18T06:10:48.906Z,8.60
2022-10-18T06:14:50.357Z,9.37
2022-10-18T06:18:54.134Z,9.83
2022-10-18T06:22:56.871Z,12.80
2022-10-18T06:26:58.779Z,10.63
2022-10-18T06:31:00.297Z,9.93
2022-10-18T06:35:02.032Z,9.17
2022-10-18T06:39:04.878Z,10.23
2022-10-18T06:43:20.159Z,10.67
2022-10-18T06:47:22.974Z,18.97
2022-10-18T06:51:24.697Z,11.73
2022-10-18T06:55:27.521Z,12.17
2022-10-18T06:59:31.324Z,10.70
2022-10-18T07:03:33.388Z,12.40
2022-10-18T07:07:35.291Z,16.87
2022-10-18T07:11:38.713Z,17.23
2022-10-18T07:15:40.086Z,16.67
2022-10-18T07:19:41.678Z,16.63
2022-10-18T07:23:44.774Z,18.60
2022-10-18T07:27:47.713Z,18.97
2022-10-18T07:31:49.266Z,19.17
2022-10-18T07:35:50.693Z,20.13
2022-10-18T07:39:52.117Z,20.27
2022-10-18T07:43:54.942Z,19.23
2022-10-18T07:47:56.814Z,18.97
2022-10-18T07:51:58.373Z,20.10
2022-10-18T07:56:02.444Z,20.67
2022-10-18T08:00:08.995Z,20.07
2022-10-18T08:04:15.416Z,19.03
2022-10-18T08:08:17.697Z,19.20
2022-10-18T08:12:19.383Z,18.93
2022-10-18T08:16:23.647Z,16.80
2022-10-18T08:20:30.902Z,17.17
2022-10-18T08:24:32.890Z,17.67
2022-10-18T08:28:34.977Z,17.87
2022-10-18T08:32:37.916Z,19.37
2022-10-18T08:36:39.442Z,19.77
2022-10-18T08:40:43.273Z,19.20
2022-10-18T08:44:47.160Z,19.37
2022-10-18T08:48:54.149Z,20.83
2022-10-18T08:53:01.355Z,20.70
2022-10-18T08:57:05.120Z,19.93
2022-10-18T09:01:20.954Z,20.67
2022-10-18T09:05:31.823Z,21.00
2022-10-18T09:09:42.542Z,21.63
2022-10-18T09:14:17.028Z,20.57
2022-10-18T09:18:37.047Z,22.83
2022-10-18T09:22:52.249Z,24.43
2022-10-18T09:26:59.862Z,28.00
2022-10-18T09:31:07.750Z,29.13
2022-10-18T09:35:14.942Z,31.97
2022-10-18T09:39:21.518Z,31.30
2022-10-18T09:43:24.779Z,29.70
2022-10-18T09:47:32.538Z,30.30
2022-10-18T09:51:37.364Z,30.37
2022-10-18T09:55:54.465Z,30.60
2022-10-18T09:59:57.778Z,29.60
2022-10-18T10:03:59.192Z,29.67
2022-10-18T10:08:00.755Z,29.87
2022-10-18T10:12:04.007Z,30.33
2022-10-18T10:16:06.101Z,30.40
2022-10-18T10:20:17.895Z,29.47
2022-10-18T10:24:26.203Z,27.33
2022-10-18T10:28:36.201Z,27.13
2022-10-18T10:32:46.756Z,27.10
2022-10-18T10:36:50.368Z,27.20
2022-10-18T10:40:52.403Z,27.03
2022-10-18T10:44:55.522Z,27.93
2022-10-18T10:49:21.701Z,27.80
2022-10-18T10:53:41.586Z,28.57
2022-10-18T10:57:45.812Z,28.77
2022-10-18T11:01:48.638Z,30.43
2022-10-18T11:05:51.126Z,30.10
2022-10-18T11:10:01.278Z,30.87
2022-10-18T11:14:26.211Z,32.57
2022-10-18T11:18:33.212Z,32.27
2022-10-18T11:22:38.660Z,32.93
2022-10-18T11:26:53.475Z,34.73
2022-10-18T11:31:07.533Z,35.97
2022-10-18T11:35:30.039Z,34.60
2022-10-18T11:39:42.487Z,33.97
2022-10-18T11:44:02.163Z,36.17
2022-10-18T11:48:20.055Z,36.40
2022-10-18T11:52:33.666Z,35.67
2022-10-18T11:56:42.457Z,37.87
2022-10-18T12:00:49.300Z,37.60
2022-10-18T12:05:22.082Z,38.17
2022-10-18T12:09:25.491Z,38.63
2022-10-18T12:13:36.149Z,35.80
2022-10-18T12:17:48.903Z,31.83
2022-10-18T12:21:51.852Z,30.80
2022-10-18T12:26:01.758Z,32.37
2022-10-18T12:30:13.267Z,32.63
2022-10-18T12:34:33.490Z,32.87
2022-10-18T12:38:37.873Z,33.30
2022-10-18T12:42:44.239Z,33.93
2022-10-18T12:46:48.090Z,36.87
2022-10-18T12:50:58.619Z,37.63
2022-10-18T12:55:28.658Z,38.20
2022-10-18T12:59:52.346Z,36.67
2022-10-18T13:03:55.524Z,36.97
2022-10-18T13:08:23.074Z,34.20
2022-10-18T13:12:51.300Z,28.03
2022-10-18T13:16:59.124Z,28.10
2022-10-18T13:21:13.165Z,26.90
2022-10-18T13:25:21.512Z,23.13
2022-10-18T13:29:44.124Z,23.80
2022-10-18T13:33:47.190Z,22.20
2022-10-18T13:37:58.220Z,20.40
2022-10-18T13:42:29.715Z,20.73
2022-10-18T13:47:13.001Z,19.33
2022-10-18T13:51:35.423Z,21.20
2022-10-18T13:55:49.817Z,20.20
2022-10-18T14:00:20.456Z,17.63
2022-10-18T14:04:39.487Z,15.90
2022-10-18T14:08:49.291Z,15.63
2022-10-18T14:12:56.262Z,14.87
2022-10-18T14:17:04.328Z,12.40
2022-10-18T14:21:15.240Z,12.03
2022-10-18T14:25:22.607Z,12.40
2022-10-18T14:29:24.264Z,10.80
2022-10-18T14:33:27.937Z,11.03
2022-10-18T14:37:34.245Z,15.60
2022-10-18T14:41:47.448Z,17.27
2022-10-18T14:45:48.902Z,17.57
2022-10-18T14:49:51.501Z,17.60
2022-10-18T14:53:54.431Z,16.50
2022-10-18T14:58:00.085Z,16.63
2022-10-18T15:02:04.378Z,17.87
2022-10-18T15:06:06.389Z,17.80
2022-10-18T15:10:14.561Z,17.70
2022-10-18T15:14:19.886Z,16.80
2022-10-18T15:18:23.899Z,15.90
2022-10-18T15:22:31.680Z,16.03
2022-10-18T15:26:34.072Z,14.80
2022-10-18T15:30:39.924Z,14.60
2022-10-18T15:34:41.603Z,15.07
2022-10-18T15:38:46.311Z,14.47
2022-10-18T15:42:52.722Z,13.00
2022-10-18T15:47:09.523Z,13.40
2022-10-18T15:51:32.095Z,13.57
2022-10-18T15:55:52.199Z,13.00
2022-10-18T15:59:59.691Z,12.57
2022-10-18T16:04:07.880Z,12.57
2022-10-18T16:08:19.400Z,12.03
2022-10-18T16:12:20.867Z,11.30
2022-10-18T16:16:24.571Z,10.93
2022-10-18T16:20:28.396Z,11.20
2022-10-18T16:24:29.898Z,11.10
2022-10-18T16:28:31.400Z,10.50
2022-10-18T16:32:33.486Z,9.83
2022-10-18T16:36:37.059Z,10.10
2022-10-18T16:40:41.195Z,8.97
2022-10-18T16:44:43.009Z,8.90
2022-10-18T16:48:45.778Z,8.63
2022-10-18T16:52:48.597Z,8.97
2022-10-18T16:56:50.448Z,9.33
2022-10-18T17:00:52.346Z,8.53
2022-10-18T17:04:54.082Z,9.63
2022-10-18T17:08:57.800Z,8.43
2022-10-18T17:12:59.458Z,8.33
2022-10-18T17:17:00.874Z,8.47
2022-10-18T17:21:02.494Z,7.97
2022-10-18T17:25:05.990Z,8.20
2022-10-18T17:29:07.771Z,8.43
2022-10-18T17:33:09.862Z,7.60
2022-10-18T17:37:11.486Z,7.77
2022-10-18T17:41:15.163Z,7.57
2022-10-18T17:45:17.117Z,8.00
2022-10-18T17:49:18.869Z,7.97
2022-10-18T17:53:20.510Z,7.67
2022-10-18T17:57:23.321Z,7.70
2022-10-18T18:01:25.508Z,7.63
2022-10-18T18:05:31.040Z,7.53
2022-10-18T18:09:32.498Z,7.70
2022-10-18T18:13:35.653Z,7.53
2022-10-18T18:17:55.900Z,7.43
2022-10-18T18:21:58.689Z,9.27
2022-10-18T18:26:00.354Z,7.10
2022-10-18T18:30:03.930Z,7.57
2022-10-18T18:34:05.554Z,6.53
2022-10-18T18:38:07.030Z,6.43
2022-10-18T18:42:08.645Z,7.63
2022-10-18T18:46:12.183Z,6.80
2022-10-18T18:50:13.746Z,6.30
2022-10-18T18:54:15.606Z,6.53
2022-10-18T18:58:17.182Z,6.17
2022-10-18T19:02:20.076Z,6.33
2022-10-18T19:06:24.428Z,7.27
2022-10-18T19:10:26.092Z,6.90
2022-10-18T19:14:27.703Z,10.10
2022-10-18T19:18:30.872Z,9.40
2022-10-18T19:22:32.534Z,9.33
2022-10-18T19:26:37.021Z,10.80
2022-10-18T19:30:38.607Z,8.50
2022-10-18T19:34:41.605Z,7.80
2022-10-18T19:38:43.186Z,7.93
2022-10-18T19:42:44.689Z,8.10
2022-10-18T19:46:46.434Z,11.50
2022-10-18T19:50:49.180Z,24.70
2022-10-18T19:54:53.222Z,24.57
2022-10-18T19:58:55.238Z,17.57
2022-10-18T20:02:56.878Z,13.23
2022-10-18T20:06:59.978Z,12.10
2022-10-18T20:11:04.358Z,9.53
2022-10-18T20:15:06.540Z,7.50
2022-10-18T20:19:10.463Z,7.27
2022-10-18T20:23:13.613Z,8.17
2022-10-18T20:27:15.339Z,9.17
2022-10-18T20:31:18.881Z,8.63
2022-10-18T20:35:20.557Z,8.10
2022-10-18T20:39:23.667Z,7.77
2022-10-18T20:43:25.222Z,7.47
2022-10-18T20:47:26.679Z,5.97
2022-10-18T20:51:28.490Z,5.80
2022-10-18T20:55:31.277Z,5.10
2022-10-18T20:59:32.691Z,5.73
2022-10-18T21:03:37.046Z,5.13
2022-10-18T21:07:38.686Z,5.43
2022-10-18T21:11:44.697Z,5.13
2022-10-18T21:15:53.694Z,5.00
2022-10-18T21:19:55.330Z,5.63
2022-10-18T21:23:56.934Z,5.47
2022-10-18T21:27:59.894Z,5.93
2022-10-18T21:32:01.532Z,6.73
2022-10-18T21:36:03.237Z,6.70
2022-10-18T21:40:06.133Z,5.83
2022-10-18T21:44:10.910Z,6.53
2022-10-18T21:48:12.752Z,6.20
2022-10-18T21:52:14.278Z,5.63
2022-10-18T21:56:18.469Z,6.03
2022-10-18T22:00:21.318Z,6.10
2022-10-18T22:04:24.704Z,6.23
2022-10-18T22:08:28.066Z,6.03
2022-10-18T22:12:29.826Z,6.90
2022-10-18T22:16:33.006Z,6.20
2022-10-18T22:20:34.456Z,6.13
2022-10-18T22:28:44.101Z,5.70
2022-10-18T22:32:46.978Z,5.90
2022-10-18T22:36:48.734Z,5.43
2022-10-18T22:40:50.199Z,5.27
2022-10-18T22:44:53.414Z,5.27
2022-10-18T22:48:56.382Z,5.43
2022-10-18T22:52:58.046Z,6.17
2022-10-18T22:56:59.798Z,5.30
2022-10-18T23:01:02.989Z,4.83
2022-10-18T23:05:06.441Z,5.20
2022-10-18T23:09:10.748Z,5.77
2022-10-18T23:13:12.768Z,5.10
2022-10-18T23:17:14.403Z,5.50
2022-10-18T23:21:18.326Z,5.63
2022-10-18T23:25:20.109Z,5.27
2022-10-18T23:29:21.707Z,5.13
2022-10-18T23:33:23.375Z,5.37
2022-10-18T23:37:26.730Z,5.50
2022-10-18T23:41:28.191Z,5.37
2022-10-18T23:45:29.877Z,4.93
2022-10-18T23:49:31.410Z,5.27
2022-10-18T23:53:34.442Z,5.20
2022-10-18T23:57:36.148Z,5.40
